sensor_id;sensor_type;location;lat;lon;timestamp;P1;durP1;ratioP1;P2;durP2;ratioP2
52574;SDS011;38468;48.114;-1.684;2023-05-10T00:01:22;15.60;;;3.10;;
52574;SDS011;38468;48.114;-1.684;2023-05-10T00:03:22;10.15;;;2.83;;
52574;SDS011;38468;48.114;-1.684;2023-05-10T00:05:23;16.80;;;3.25;;
52574;SDS011;38468;48.114;-1.684;2023-05-10T00:07:24;14.25;;;3.97;;
52574;SDS011;38468;48.114;-1.684;2023-05-10T00:09:25;11.57;;;2.72;;
52574;SDS011;38468;48.114;-1.684;2023-05-10T00:11:25;15.68;;;3.63;;
52574;SDS011;38468;48.114;-1.684;2023-05-10T00:13:26;11.20;;;3.38;;
52574;SDS011;38468;48.114;-1.684;2023-05-10T00:15:27;10.60;;;2.85;;
52574;SDS011;38468;48.114;-1.684;2023-05-10T00:17:28;19.50;;;4.10;;
52574;SDS011;38468;48.114;-1.684;2023-05-10T00:19:28;12.38;;;2.70;;
52574;SDS011;38468;48.114;-1.684;2023-05-10T00:21:29;12.13;;;3.22;;
52574;SDS011;38468;48.114;-1.684;2023-05-10T00:23:30;11.65;;;4.28;;
52574;SDS011;38468;48.114;-1.684;2023-05-10T00:25:30;10.48;;;3.20;;
52574;SDS011;38468;48.114;-1.684;2023-05-10T00:27:31;11.82;;;2.65;;
52574;SDS011;38468;48.114;-1.684;2023-05-10T00:29:31;10.43;;;2.72;;
52574;SDS011;38468;48.114;-1.684;2023-05-10T00:31:33;10.27;;;3.45;;
52574;SDS011;38468;48.114;-1.684;2023-05-10T00:33:34;17.17;;;3.10;;
52574;SDS011;38468;48.114;-1.684;2023-05-10T00:35:34;8.60;;;2.60;;
52574;SDS011;38468;48.114;-1.684;2023-05-10T00:37:35;9.82;;;3.03;;
52574;SDS011;38468;48.114;-1.684;2023-05-10T00:39:36;11.02;;;3.08;;
52574;SDS011;38468;48.114;-1.684;2023-05-10T00:41:37;15.13;;;3.30;;
52574;SDS011;38468;48.114;-1.684;2023-05-10T00:43:37;11.55;;;2.80;;
52574;SDS011;38468;48.114;-1.684;2023-05-10T00:45:38;16.92;;;3.25;;
52574;SDS011;38468;48.114;-1.684;2023-05-10T00:47:40;18.58;;;4.60;;
52574;SDS011;38468;48.114;-1.684;2023-05-10T00:49:41;19.02;;;3.40;;
52574;SDS011;38468;48.114;-1.684;2023-05-10T00:51:42;14.98;;;3.55;;
52574;SDS011;38468;48.114;-1.684;2023-05-10T00:53:47;12.68;;;3.90;;
52574;SDS011;38468;48.114;-1.684;2023-05-10T00:55:49;14.57;;;3.97;;
52574;SDS011;38468;48.114;-1.684;2023-05-10T00:57:50;9.73;;;2.63;;
52574;SDS011;38468;48.114;-1.684;2023-05-10T00:59:53;16.73;;;4.00;;
52574;SDS011;38468;48.114;-1.684;2023-05-10T01:01:53;15.50;;;4.05;;
52574;SDS011;38468;48.114;-1.684;2023-05-10T01:03:54;14.68;;;4.43;;
52574;SDS011;38468;48.114;-1.684;2023-05-10T01:05:55;20.60;;;3.58;;
52574;SDS011;38468;48.114;-1.684;2023-05-10T01:07:56;14.68;;;4.00;;
52574;SDS011;38468;48.114;-1.684;2023-05-10T01:09:57;14.70;;;3.70;;
52574;SDS011;38468;48.114;-1.684;2023-05-10T01:11:59;18.27;;;3.40;;
52574;SDS011;38468;48.114;-1.684;2023-05-10T01:14:01;16.52;;;4.50;;
52574;SDS011;38468;48.114;-1.684;2023-05-10T01:16:03;17.38;;;4.55;;
52574;SDS011;38468;48.114;-1.684;2023-05-10T01:18:04;11.23;;;2.50;;
52574;SDS011;38468;48.114;-1.684;2023-05-10T01:20:06;15.05;;;4.63;;
52574;SDS011;38468;48.114;-1.684;2023-05-10T01:32:05;20.02;;;4.60;;
52574;SDS011;38468;48.114;-1.684;2023-05-10T01:34:32;11.85;;;4.30;;
52574;SDS011;38468;48.114;-1.684;2023-05-10T01:39:11;18.35;;;3.50;;
52574;SDS011;38468;48.114;-1.684;2023-05-10T01:41:27;14.00;;;3.70;;
52574;SDS011;38468;48.114;-1.684;2023-05-10T01:45:58;7.65;;;2.85;;
52574;SDS011;38468;48.114;-1.684;2023-05-10T01:48:12;20.83;;;4.97;;
52574;SDS011;38468;48.114;-1.684;2023-05-10T01:50:19;14.35;;;3.22;;
52574;SDS011;38468;48.114;-1.684;2023-05-10T01:52:32;10.50;;;3.72;;
52574;SDS011;38468;48.114;-1.684;2023-05-10T01:54:41;22.75;;;3.83;;
52574;SDS011;38468;48.114;-1.684;2023-05-10T01:56:47;19.92;;;4.60;;
52574;SDS011;38468;48.114;-1.684;2023-05-10T01:58:55;15.48;;;3.67;;
52574;SDS011;38468;48.114;-1.684;2023-05-10T02:00:57;20.27;;;4.35;;
52574;SDS011;38468;48.114;-1.684;2023-05-10T02:03:00;20.85;;;3.92;;
52574;SDS011;38468;48.114;-1.684;2023-05-10T02:05:07;18.17;;;3.97;;
52574;SDS011;38468;48.114;-1.684;2023-05-10T02:07:11;12.73;;;3.88;;
52574;SDS011;38468;48.114;-1.684;2023-05-10T02:11:15;17.90;;;4.10;;
52574;SDS011;38468;48.114;-1.684;2023-05-10T02:13:18;11.05;;;3.80;;
52574;SDS011;38468;48.114;-1.684;2023-05-10T02:15:21;14.85;;;3.92;;
52574;SDS011;38468;48.114;-1.684;2023-05-10T02:17:23;19.35;;;3.40;;
52574;SDS011;38468;48.114;-1.684;2023-05-10T02:19:26;15.75;;;4.75;;
52574;SDS011;38468;48.114;-1.684;2023-05-10T02:21:29;30.50;;;4.60;;
52574;SDS011;38468;48.114;-1.684;2023-05-10T02:25:31;15.90;;;4.70;;
52574;SDS011;38468;48.114;-1.684;2023-05-10T02:27:33;14.23;;;3.92;;
52574;SDS011;38468;48.114;-1.684;2023-05-10T02:29:35;18.88;;;4.80;;
52574;SDS011;38468;48.114;-1.684;2023-05-10T02:31:37;12.52;;;3.88;;
52574;SDS011;38468;48.114;-1.684;2023-05-10T02:33:38;17.75;;;4.15;;
52574;SDS011;38468;48.114;-1.684;2023-05-10T02:35:40;14.93;;;4.30;;
52574;SDS011;38468;48.114;-1.684;2023-05-10T02:37:42;14.70;;;4.32;;
52574;SDS011;38468;48.114;-1.684;2023-05-10T02:39:44;20.73;;;4.55;;
52574;SDS011;38468;48.114;-1.684;2023-05-10T02:43:51;31.27;;;5.40;;
52574;SDS011;38468;48.114;-1.684;2023-05-10T02:45:57;19.70;;;4.20;;
52574;SDS011;38468;48.114;-1.684;2023-05-10T02:47:58;24.83;;;4.85;;
52574;SDS011;38468;48.114;-1.684;2023-05-10T02:49:59;19.97;;;6.00;;
52574;SDS011;38468;48.114;-1.684;2023-05-10T02:52:00;17.80;;;4.85;;
52574;SDS011;38468;48.114;-1.684;2023-05-10T02:54:10;14.95;;;4.35;;
52574;SDS011;38468;48.114;-1.684;2023-05-10T02:56:15;20.67;;;4.28;;
52574;SDS011;38468;48.114;-1.684;2023-05-10T02:58:22;16.30;;;4.82;;
52574;SDS011;38468;48.114;-1.684;2023-05-10T03:00:23;16.13;;;4.28;;
52574;SDS011;38468;48.114;-1.684;2023-05-10T03:02:24;18.73;;;4.38;;
52574;SDS011;38468;48.114;-1.684;2023-05-10T03:04:26;18.17;;;4.88;;
52574;SDS011;38468;48.114;-1.684;2023-05-10T03:06:26;26.33;;;3.85;;
52574;SDS011;38468;48.114;-1.684;2023-05-10T03:08:28;18.77;;;5.68;;
52574;SDS011;38468;48.114;-1.684;2023-05-10T03:10:29;17.25;;;4.75;;
52574;SDS011;38468;48.114;-1.684;2023-05-10T03:12:47;25.30;;;4.97;;
52574;SDS011;38468;48.114;-1.684;2023-05-10T03:17:22;12.75;;;4.90;;
52574;SDS011;38468;48.114;-1.684;2023-05-10T03:19:25;19.65;;;4.80;;
52574;SDS011;38468;48.114;-1.684;2023-05-10T03:21:29;19.83;;;4.18;;
52574;SDS011;38468;48.114;-1.684;2023-05-10T03:23:35;15.27;;;4.13;;
52574;SDS011;38468;48.114;-1.684;2023-05-10T03:25:43;20.90;;;5.10;;
52574;SDS011;38468;48.114;-1.684;2023-05-10T03:27:45;18.20;;;4.88;;
52574;SDS011;38468;48.114;-1.684;2023-05-10T03:29:47;17.50;;;5.53;;
52574;SDS011;38468;48.114;-1.684;2023-05-10T03:31:48;15.00;;;3.85;;
52574;SDS011;38468;48.114;-1.684;2023-05-10T03:33:49;14.18;;;4.45;;
52574;SDS011;38468;48.114;-1.684;2023-05-10T03:35:51;19.13;;;5.93;;
52574;SDS011;38468;48.114;-1.684;2023-05-10T03:37:52;13.65;;;4.68;;
52574;SDS011;38468;48.114;-1.684;2023-05-10T03:39:52;24.20;;;4.35;;
52574;SDS011;38468;48.114;-1.684;2023-05-10T03:41:53;16.52;;;3.85;;
52574;SDS011;38468;48.114;-1.684;2023-05-10T03:43:54;18.33;;;5.13;;
52574;SDS011;38468;48.114;-1.684;2023-05-10T03:45:54;24.10;;;5.68;;
52574;SDS011;38468;48.114;-1.684;2023-05-10T03:47:55;19.17;;;4.25;;
52574;SDS011;38468;48.114;-1.684;2023-05-10T03:49:57;16.27;;;4.67;;
52574;SDS011;38468;48.114;-1.684;2023-05-10T03:51:57;21.83;;;5.38;;
52574;SDS011;38468;48.114;-1.684;2023-05-10T03:53:58;16.63;;;4.22;;
52574;SDS011;38468;48.114;-1.684;2023-05-10T03:55:58;15.63;;;5.32;;
52574;SDS011;38468;48.114;-1.684;2023-05-10T03:57:59;21.77;;;4.60;;
52574;SDS011;38468;48.114;-1.684;2023-05-10T04:00:00;11.40;;;3.40;;
52574;SDS011;38468;48.114;-1.684;2023-05-10T04:02:00;18.90;;;3.88;;
52574;SDS011;38468;48.114;-1.684;2023-05-10T04:04:01;20.20;;;4.75;;
52574;SDS011;38468;48.114;-1.684;2023-05-10T04:06:02;13.77;;;4.72;;
52574;SDS011;38468;48.114;-1.684;2023-05-10T04:08:03;21.27;;;5.63;;
52574;SDS011;38468;48.114;-1.684;2023-05-10T04:10:04;18.27;;;4.97;;
52574;SDS011;38468;48.114;-1.684;2023-05-10T04:12:05;20.35;;;5.05;;
52574;SDS011;38468;48.114;-1.684;2023-05-10T04:14:06;13.30;;;4.97;;
52574;SDS011;38468;48.114;-1.684;2023-05-10T04:16:07;27.83;;;4.55;;
52574;SDS011;38468;48.114;-1.684;2023-05-10T04:18:07;22.98;;;4.68;;
52574;SDS011;38468;48.114;-1.684;2023-05-10T04:20:08;23.35;;;6.10;;
52574;SDS011;38468;48.114;-1.684;2023-05-10T04:22:09;22.00;;;4.20;;
52574;SDS011;38468;48.114;-1.684;2023-05-10T04:24:10;18.05;;;4.70;;
52574;SDS011;38468;48.114;-1.684;2023-05-10T04:26:10;17.77;;;4.82;;
52574;SDS011;38468;48.114;-1.684;2023-05-10T04:28:11;21.90;;;4.90;;
52574;SDS011;38468;48.114;-1.684;2023-05-10T04:30:12;22.38;;;4.28;;
52574;SDS011;38468;48.114;-1.684;2023-05-10T04:32:13;20.60;;;4.45;;
52574;SDS011;38468;48.114;-1.684;2023-05-10T04:34:14;14.30;;;3.95;;
52574;SDS011;38468;48.114;-1.684;2023-05-10T04:36:14;20.13;;;5.13;;
52574;SDS011;38468;48.114;-1.684;2023-05-10T04:38:15;16.55;;;6.07;;
52574;SDS011;38468;48.114;-1.684;2023-05-10T04:40:15;17.25;;;4.60;;
52574;SDS011;38468;48.114;-1.684;2023-05-10T04:42:16;18.23;;;4.57;;
52574;SDS011;38468;48.114;-1.684;2023-05-10T04:44:17;22.90;;;4.90;;
52574;SDS011;38468;48.114;-1.684;2023-05-10T04:46:17;24.35;;;4.78;;
52574;SDS011;38468;48.114;-1.684;2023-05-10T04:48:18;19.73;;;5.07;;
52574;SDS011;38468;48.114;-1.684;2023-05-10T04:50:19;19.48;;;4.07;;
52574;SDS011;38468;48.114;-1.684;2023-05-10T04:52:19;12.60;;;4.43;;
52574;SDS011;38468;48.114;-1.684;2023-05-10T04:54:20;12.82;;;3.67;;
52574;SDS011;38468;48.114;-1.684;2023-05-10T04:56:21;16.48;;;4.40;;
52574;SDS011;38468;48.114;-1.684;2023-05-10T04:58:22;17.38;;;4.38;;
52574;SDS011;38468;48.114;-1.684;2023-05-10T05:00:23;18.95;;;4.53;;
52574;SDS011;38468;48.114;-1.684;2023-05-10T05:02:24;18.33;;;4.47;;
52574;SDS011;38468;48.114;-1.684;2023-05-10T05:04:25;22.55;;;5.15;;
52574;SDS011;38468;48.114;-1.684;2023-05-10T05:06:26;23.50;;;5.03;;
52574;SDS011;38468;48.114;-1.684;2023-05-10T05:08:27;19.00;;;4.45;;
52574;SDS011;38468;48.114;-1.684;2023-05-10T05:10:27;20.50;;;4.25;;
52574;SDS011;38468;48.114;-1.684;2023-05-10T05:12:28;19.27;;;5.03;;
52574;SDS011;38468;48.114;-1.684;2023-05-10T05:14:29;18.65;;;4.32;;
52574;SDS011;38468;48.114;-1.684;2023-05-10T05:16:30;19.27;;;4.32;;
52574;SDS011;38468;48.114;-1.684;2023-05-10T05:18:31;22.65;;;5.63;;
52574;SDS011;38468;48.114;-1.684;2023-05-10T05:20:32;18.50;;;4.80;;
52574;SDS011;38468;48.114;-1.684;2023-05-10T05:24:35;27.02;;;4.85;;
52574;SDS011;38468;48.114;-1.684;2023-05-10T05:26:39;14.65;;;3.95;;
52574;SDS011;38468;48.114;-1.684;2023-05-10T05:28:39;20.40;;;4.85;;
52574;SDS011;38468;48.114;-1.684;2023-05-10T05:30:40;20.58;;;4.40;;
52574;SDS011;38468;48.114;-1.684;2023-05-10T05:32:41;13.70;;;4.80;;
52574;SDS011;38468;48.114;-1.684;2023-05-10T05:34:44;19.58;;;4.72;;
52574;SDS011;38468;48.114;-1.684;2023-05-10T05:36:45;13.63;;;4.15;;
52574;SDS011;38468;48.114;-1.684;2023-05-10T05:38:46;17.15;;;4.53;;
52574;SDS011;38468;48.114;-1.684;2023-05-10T05:40:46;18.70;;;3.78;;
52574;SDS011;38468;48.114;-1.684;2023-05-10T05:42:47;20.15;;;5.07;;
52574;SDS011;38468;48.114;-1.684;2023-05-10T05:44:48;24.08;;;5.20;;
52574;SDS011;38468;48.114;-1.684;2023-05-10T05:46:48;16.83;;;3.97;;
52574;SDS011;38468;48.114;-1.684;2023-05-10T05:48:49;16.60;;;4.13;;
52574;SDS011;38468;48.114;-1.684;2023-05-10T05:50:50;22.15;;;5.00;;
52574;SDS011;38468;48.114;-1.684;2023-05-10T05:52:55;20.80;;;3.90;;
52574;SDS011;38468;48.114;-1.684;2023-05-10T05:54:57;24.08;;;5.47;;
52574;SDS011;38468;48.114;-1.684;2023-05-10T05:56:58;18.52;;;4.82;;
52574;SDS011;38468;48.114;-1.684;2023-05-10T05:59:00;20.52;;;4.38;;
52574;SDS011;38468;48.114;-1.684;2023-05-10T06:01:00;14.48;;;4.03;;
52574;SDS011;38468;48.114;-1.684;2023-05-10T06:03:01;16.45;;;5.93;;
52574;SDS011;38468;48.114;-1.684;2023-05-10T06:05:02;25.17;;;8.18;;
52574;SDS011;38468;48.114;-1.684;2023-05-10T06:07:03;19.40;;;4.60;;
52574;SDS011;38468;48.114;-1.684;2023-05-10T06:09:03;17.02;;;4.00;;
52574;SDS011;38468;48.114;-1.684;2023-05-10T06:11:04;23.55;;;6.07;;
52574;SDS011;38468;48.114;-1.684;2023-05-10T06:13:05;14.32;;;4.55;;
52574;SDS011;38468;48.114;-1.684;2023-05-10T06:15:05;26.02;;;5.07;;
52574;SDS011;38468;48.114;-1.684;2023-05-10T06:17:07;17.67;;;3.97;;
52574;SDS011;38468;48.114;-1.684;2023-05-10T06:19:07;15.93;;;3.63;;
52574;SDS011;38468;48.114;-1.684;2023-05-10T06:21:08;20.95;;;5.20;;
52574;SDS011;38468;48.114;-1.684;2023-05-10T06:23:09;18.23;;;3.92;;
52574;SDS011;38468;48.114;-1.684;2023-05-10T06:25:09;19.90;;;4.05;;
52574;SDS011;38468;48.114;-1.684;2023-05-10T06:27:11;20.33;;;5.03;;
52574;SDS011;38468;48.114;-1.684;2023-05-10T06:29:12;19.83;;;4.85;;
52574;SDS011;38468;48.114;-1.684;2023-05-10T06:31:12;11.05;;;3.70;;
52574;SDS011;38468;48.114;-1.684;2023-05-10T06:33:13;22.63;;;3.85;;
52574;SDS011;38468;48.114;-1.684;2023-05-10T06:35:14;15.57;;;4.90;;
52574;SDS011;38468;48.114;-1.684;2023-05-10T06:37:14;20.48;;;5.05;;
52574;SDS011;38468;48.114;-1.684;2023-05-10T06:39:15;19.48;;;4.95;;
52574;SDS011;38468;48.114;-1.684;2023-05-10T06:41:16;12.95;;;4.13;;
52574;SDS011;38468;48.114;-1.684;2023-05-10T06:43:16;16.73;;;3.90;;
52574;SDS011;38468;48.114;-1.684;2023-05-10T06:45:17;16.70;;;4.93;;
52574;SDS011;38468;48.114;-1.684;2023-05-10T06:47:18;16.80;;;4.60;;
52574;SDS011;38468;48.114;-1.684;2023-05-10T06:49:18;17.83;;;4.68;;
52574;SDS011;38468;48.114;-1.684;2023-05-10T06:51:19;18.42;;;4.85;;
52574;SDS011;38468;48.114;-1.684;2023-05-10T06:53:21;21.85;;;4.65;;
52574;SDS011;38468;48.114;-1.684;2023-05-10T06:55:21;15.52;;;4.60;;
52574;SDS011;38468;48.114;-1.684;2023-05-10T06:57:22;16.30;;;4.38;;
52574;SDS011;38468;48.114;-1.684;2023-05-10T06:59:23;23.48;;;4.53;;
52574;SDS011;38468;48.114;-1.684;2023-05-10T07:01:24;16.15;;;5.65;;
52574;SDS011;38468;48.114;-1.684;2023-05-10T07:03:24;12.77;;;4.78;;
52574;SDS011;38468;48.114;-1.684;2023-05-10T07:05:25;18.05;;;4.75;;
52574;SDS011;38468;48.114;-1.684;2023-05-10T07:09:28;22.17;;;5.32;;
52574;SDS011;38468;48.114;-1.684;2023-05-10T07:11:29;15.75;;;4.63;;
52574;SDS011;38468;48.114;-1.684;2023-05-10T07:13:31;15.73;;;4.18;;
52574;SDS011;38468;48.114;-1.684;2023-05-10T07:15:31;12.73;;;4.13;;
52574;SDS011;38468;48.114;-1.684;2023-05-10T07:17:33;18.02;;;3.90;;
52574;SDS011;38468;48.114;-1.684;2023-05-10T07:19:34;15.55;;;4.50;;
52574;SDS011;38468;48.114;-1.684;2023-05-10T07:21:35;18.27;;;4.43;;
52574;SDS011;38468;48.114;-1.684;2023-05-10T07:23:36;12.93;;;3.20;;
52574;SDS011;38468;48.114;-1.684;2023-05-10T07:25:37;18.23;;;4.50;;
52574;SDS011;38468;48.114;-1.684;2023-05-10T07:27:37;12.48;;;3.83;;
52574;SDS011;38468;48.114;-1.684;2023-05-10T07:29:38;15.05;;;4.47;;
52574;SDS011;38468;48.114;-1.684;2023-05-10T07:31:39;18.77;;;4.28;;
52574;SDS011;38468;48.114;-1.684;2023-05-10T07:33:41;11.98;;;4.28;;
52574;SDS011;38468;48.114;-1.684;2023-05-10T07:35:42;13.40;;;4.85;;
52574;SDS011;38468;48.114;-1.684;2023-05-10T07:37:43;21.45;;;4.70;;
52574;SDS011;38468;48.114;-1.684;2023-05-10T07:39:44;18.30;;;4.13;;
52574;SDS011;38468;48.114;-1.684;2023-05-10T07:41:44;21.75;;;4.90;;
52574;SDS011;38468;48.114;-1.684;2023-05-10T07:43:45;14.25;;;3.70;;
52574;SDS011;38468;48.114;-1.684;2023-05-10T07:45:45;14.80;;;4.60;;
52574;SDS011;38468;48.114;-1.684;2023-05-10T07:47:46;14.40;;;3.80;;
52574;SDS011;38468;48.114;-1.684;2023-05-10T07:49:48;14.98;;;3.40;;
52574;SDS011;38468;48.114;-1.684;2023-05-10T07:51:49;19.73;;;3.85;;
52574;SDS011;38468;48.114;-1.684;2023-05-10T07:53:50;14.48;;;3.92;;
52574;SDS011;38468;48.114;-1.684;2023-05-10T07:55:51;16.25;;;3.90;;
52574;SDS011;38468;48.114;-1.684;2023-05-10T07:57:54;12.30;;;4.38;;
52574;SDS011;38468;48.114;-1.684;2023-05-10T07:59:55;18.13;;;3.95;;
52574;SDS011;38468;48.114;-1.684;2023-05-10T08:01:55;14.55;;;3.67;;
52574;SDS011;38468;48.114;-1.684;2023-05-10T08:03:56;14.07;;;3.30;;
52574;SDS011;38468;48.114;-1.684;2023-05-10T08:05:56;17.88;;;4.82;;
52574;SDS011;38468;48.114;-1.684;2023-05-10T08:07:57;17.52;;;4.15;;
52574;SDS011;38468;48.114;-1.684;2023-05-10T08:09:59;8.35;;;3.42;;
52574;SDS011;38468;48.114;-1.684;2023-05-10T08:12:00;13.43;;;3.42;;
52574;SDS011;38468;48.114;-1.684;2023-05-10T08:14:00;10.23;;;3.67;;
52574;SDS011;38468;48.114;-1.684;2023-05-10T08:16:01;12.85;;;3.65;;
52574;SDS011;38468;48.114;-1.684;2023-05-10T08:18:02;12.82;;;3.60;;
52574;SDS011;38468;48.114;-1.684;2023-05-10T08:20:04;14.07;;;4.10;;
52574;SDS011;38468;48.114;-1.684;2023-05-10T08:22:05;11.35;;;3.83;;
52574;SDS011;38468;48.114;-1.684;2023-05-10T08:24:06;10.90;;;3.55;;
52574;SDS011;38468;48.114;-1.684;2023-05-10T08:26:07;17.33;;;3.45;;
52574;SDS011;38468;48.114;-1.684;2023-05-10T08:28:07;11.63;;;4.25;;
52574;SDS011;38468;48.114;-1.684;2023-05-10T08:30:08;13.73;;;3.45;;
52574;SDS011;38468;48.114;-1.684;2023-05-10T08:32:09;9.20;;;3.13;;
52574;SDS011;38468;48.114;-1.684;2023-05-10T08:34:10;19.75;;;3.92;;
52574;SDS011;38468;48.114;-1.684;2023-05-10T08:36:11;17.08;;;4.13;;
52574;SDS011;38468;48.114;-1.684;2023-05-10T08:38:14;11.82;;;2.92;;
52574;SDS011;38468;48.114;-1.684;2023-05-10T08:40:14;9.77;;;3.00;;
52574;SDS011;38468;48.114;-1.684;2023-05-10T08:42:16;13.15;;;4.28;;
52574;SDS011;38468;48.114;-1.684;2023-05-10T08:44:21;10.73;;;3.35;;
52574;SDS011;38468;48.114;-1.684;2023-05-10T08:46:22;10.52;;;3.42;;
52574;SDS011;38468;48.114;-1.684;2023-05-10T08:48:23;8.85;;;2.95;;
52574;SDS011;38468;48.114;-1.684;2023-05-10T08:50:25;7.20;;;2.70;;
52574;SDS011;38468;48.114;-1.684;2023-05-10T08:52:26;12.05;;;3.83;;
52574;SDS011;38468;48.114;-1.684;2023-05-10T08:54:31;13.50;;;4.00;;
52574;SDS011;38468;48.114;-1.684;2023-05-10T08:58:33;12.82;;;3.05;;
52574;SDS011;38468;48.114;-1.684;2023-05-10T09:00:33;9.70;;;3.75;;
52574;SDS011;38468;48.114;-1.684;2023-05-10T09:02:35;9.40;;;3.88;;
52574;SDS011;38468;48.114;-1.684;2023-05-10T09:04:37;10.82;;;3.10;;
52574;SDS011;38468;48.114;-1.684;2023-05-10T09:06:37;7.32;;;2.70;;
52574;SDS011;38468;48.114;-1.684;2023-05-10T09:08:38;8.90;;;3.70;;
52574;SDS011;38468;48.114;-1.684;2023-05-10T09:10:42;6.00;;;2.95;;
52574;SDS011;38468;48.114;-1.684;2023-05-10T09:12:43;7.20;;;2.85;;
52574;SDS011;38468;48.114;-1.684;2023-05-10T09:14:45;11.63;;;3.13;;
52574;SDS011;38468;48.114;-1.684;2023-05-10T09:16:46;9.50;;;2.80;;
52574;SDS011;38468;48.114;-1.684;2023-05-10T09:18:47;6.63;;;2.75;;
52574;SDS011;38468;48.114;-1.684;2023-05-10T09:20:49;8.57;;;2.78;;
52574;SDS011;38468;48.114;-1.684;2023-05-10T09:22:50;7.90;;;3.22;;
52574;SDS011;38468;48.114;-1.684;2023-05-10T09:25:07;13.65;;;3.75;;
52574;SDS011;38468;48.114;-1.684;2023-05-10T09:27:12;8.88;;;3.08;;
52574;SDS011;38468;48.114;-1.684;2023-05-10T09:29:12;13.07;;;3.67;;
52574;SDS011;38468;48.114;-1.684;2023-05-10T09:31:13;11.88;;;3.55;;
52574;SDS011;38468;48.114;-1.684;2023-05-10T09:33:14;7.82;;;3.20;;
52574;SDS011;38468;48.114;-1.684;2023-05-10T09:35:22;8.82;;;3.00;;
52574;SDS011;38468;48.114;-1.684;2023-05-10T09:37:29;11.65;;;3.22;;
52574;SDS011;38468;48.114;-1.684;2023-05-10T09:39:33;9.90;;;2.95;;
52574;SDS011;38468;48.114;-1.684;2023-05-10T09:41:35;9.55;;;2.72;;
52574;SDS011;38468;48.114;-1.684;2023-05-10T09:43:37;10.13;;;3.05;;
52574;SDS011;38468;48.114;-1.684;2023-05-10T09:45:38;11.23;;;2.90;;
52574;SDS011;38468;48.114;-1.684;2023-05-10T09:47:41;11.80;;;3.45;;
52574;SDS011;38468;48.114;-1.684;2023-05-10T09:49:42;7.97;;;3.45;;
52574;SDS011;38468;48.114;-1.684;2023-05-10T09:51:44;7.13;;;3.13;;
52574;SDS011;38468;48.114;-1.684;2023-05-10T09:53:44;8.13;;;2.97;;
52574;SDS011;38468;48.114;-1.684;2023-05-10T09:55:46;8.80;;;2.85;;
52574;SDS011;38468;48.114;-1.684;2023-05-10T09:57:49;9.48;;;3.75;;
52574;SDS011;38468;48.114;-1.684;2023-05-10T10:00:00;7.70;;;3.33;;
52574;SDS011;38468;48.114;-1.684;2023-05-10T10:02:00;8.57;;;2.58;;
52574;SDS011;38468;48.114;-1.684;2023-05-10T10:04:05;8.40;;;3.10;;
52574;SDS011;38468;48.114;-1.684;2023-05-10T10:06:10;10.27;;;3.13;;
52574;SDS011;38468;48.114;-1.684;2023-05-10T10:08:12;8.60;;;3.20;;
52574;SDS011;38468;48.114;-1.684;2023-05-10T10:10:13;8.30;;;3.30;;
52574;SDS011;38468;48.114;-1.684;2023-05-10T10:12:14;12.15;;;2.75;;
52574;SDS011;38468;48.114;-1.684;2023-05-10T10:14:16;7.13;;;2.63;;
52574;SDS011;38468;48.114;-1.684;2023-05-10T10:16:18;7.50;;;2.60;;
52574;SDS011;38468;48.114;-1.684;2023-05-10T10:18:20;6.13;;;2.45;;
52574;SDS011;38468;48.114;-1.684;2023-05-10T10:20:27;7.72;;;2.80;;
52574;SDS011;38468;48.114;-1.684;2023-05-10T10:22:28;8.50;;;2.45;;
52574;SDS011;38468;48.114;-1.684;2023-05-10T10:24:29;8.15;;;3.45;;
52574;SDS011;38468;48.114;-1.684;2023-05-10T10:26:30;5.90;;;2.70;;
52574;SDS011;38468;48.114;-1.684;2023-05-10T10:30:48;6.43;;;2.80;;
52574;SDS011;38468;48.114;-1.684;2023-05-10T10:35:31;7.70;;;2.47;;
52574;SDS011;38468;48.114;-1.684;2023-05-10T10:37:45;11.52;;;3.00;;
52574;SDS011;38468;48.114;-1.684;2023-05-10T10:39:50;5.75;;;2.20;;
52574;SDS011;38468;48.114;-1.684;2023-05-10T10:46:24;8.98;;;2.30;;
52574;SDS011;38468;48.114;-1.684;2023-05-10T10:48:25;7.00;;;2.83;;
52574;SDS011;38468;48.114;-1.684;2023-05-10T10:50:26;4.03;;;1.90;;
52574;SDS011;38468;48.114;-1.684;2023-05-10T10:52:28;5.07;;;2.03;;
52574;SDS011;38468;48.114;-1.684;2023-05-10T10:54:37;6.70;;;2.55;;
52574;SDS011;38468;48.114;-1.684;2023-05-10T10:56:38;4.00;;;1.80;;
52574;SDS011;38468;48.114;-1.684;2023-05-10T10:58:39;7.28;;;2.65;;
52574;SDS011;38468;48.114;-1.684;2023-05-10T11:00:40;3.93;;;1.80;;
52574;SDS011;38468;48.114;-1.684;2023-05-10T11:04:42;4.90;;;2.00;;
52574;SDS011;38468;48.114;-1.684;2023-05-10T11:06:46;4.63;;;2.28;;
52574;SDS011;38468;48.114;-1.684;2023-05-10T11:08:46;3.20;;;1.38;;
52574;SDS011;38468;48.114;-1.684;2023-05-10T11:13:05;1.90;;;1.20;;
52574;SDS011;38468;48.114;-1.684;2023-05-10T11:15:08;8.32;;;1.55;;
52574;SDS011;38468;48.114;-1.684;2023-05-10T11:17:22;3.60;;;1.55;;
52574;SDS011;38468;48.114;-1.684;2023-05-10T11:19:24;5.20;;;1.55;;
52574;SDS011;38468;48.114;-1.684;2023-05-10T11:21:31;3.80;;;1.50;;
52574;SDS011;38468;48.114;-1.684;2023-05-10T11:23:47;3.65;;;1.92;;
52574;SDS011;38468;48.114;-1.684;2023-05-10T11:25:49;4.05;;;1.80;;
52574;SDS011;38468;48.114;-1.684;2023-05-10T11:27:50;5.28;;;1.90;;
52574;SDS011;38468;48.114;-1.684;2023-05-10T11:29:51;5.20;;;1.80;;
52574;SDS011;38468;48.114;-1.684;2023-05-10T11:31:52;5.03;;;2.13;;
52574;SDS011;38468;48.114;-1.684;2023-05-10T11:33:57;5.22;;;1.98;;
52574;SDS011;38468;48.114;-1.684;2023-05-10T11:35:59;4.50;;;1.58;;
52574;SDS011;38468;48.114;-1.684;2023-05-10T11:38:00;5.10;;;1.80;;
52574;SDS011;38468;48.114;-1.684;2023-05-10T11:40:00;5.80;;;2.03;;
52574;SDS011;38468;48.114;-1.684;2023-05-10T11:42:02;8.90;;;2.03;;
52574;SDS011;38468;48.114;-1.684;2023-05-10T11:44:03;3.28;;;1.30;;
52574;SDS011;38468;48.114;-1.684;2023-05-10T11:46:04;3.92;;;1.48;;
52574;SDS011;38468;48.114;-1.684;2023-05-10T11:48:06;3.85;;;2.08;;
52574;SDS011;38468;48.114;-1.684;2023-05-10T11:50:07;2.38;;;1.17;;
52574;SDS011;38468;48.114;-1.684;2023-05-10T11:52:09;5.32;;;1.75;;
52574;SDS011;38468;48.114;-1.684;2023-05-10T11:56:11;10.48;;;2.00;;
52574;SDS011;38468;48.114;-1.684;2023-05-10T11:58:12;4.40;;;2.00;;
52574;SDS011;38468;48.114;-1.684;2023-05-10T12:00:13;7.00;;;2.05;;
52574;SDS011;38468;48.114;-1.684;2023-05-10T12:02:14;7.25;;;2.17;;
52574;SDS011;38468;48.114;-1.684;2023-05-10T12:04:15;9.20;;;1.95;;
52574;SDS011;38468;48.114;-1.684;2023-05-10T12:06:16;6.25;;;1.58;;
52574;SDS011;38468;48.114;-1.684;2023-05-10T12:08:21;6.07;;;1.52;;
52574;SDS011;38468;48.114;-1.684;2023-05-10T12:10:25;5.70;;;2.47;;
52574;SDS011;38468;48.114;-1.684;2023-05-10T12:12:26;4.60;;;1.55;;
52574;SDS011;38468;48.114;-1.684;2023-05-10T12:14:27;4.50;;;2.10;;
52574;SDS011;38468;48.114;-1.684;2023-05-10T12:16:29;2.67;;;1.15;;
52574;SDS011;38468;48.114;-1.684;2023-05-10T12:18:29;3.67;;;1.30;;
52574;SDS011;38468;48.114;-1.684;2023-05-10T12:20:30;1.80;;;1.35;;
52574;SDS011;38468;48.114;-1.684;2023-05-10T12:22:33;3.92;;;1.30;;
52574;SDS011;38468;48.114;-1.684;2023-05-10T12:24:35;8.75;;;1.40;;
52574;SDS011;38468;48.114;-1.684;2023-05-10T12:26:38;3.63;;;1.80;;
52574;SDS011;38468;48.114;-1.684;2023-05-10T12:28:39;5.38;;;2.25;;
52574;SDS011;38468;48.114;-1.684;2023-05-10T12:30:40;3.83;;;1.90;;
52574;SDS011;38468;48.114;-1.684;2023-05-10T12:32:41;3.47;;;1.50;;
52574;SDS011;38468;48.114;-1.684;2023-05-10T12:34:43;5.05;;;1.58;;
52574;SDS011;38468;48.114;-1.684;2023-05-10T12:36:49;7.65;;;1.88;;
52574;SDS011;38468;48.114;-1.684;2023-05-10T12:38:59;5.45;;;2.20;;
52574;SDS011;38468;48.114;-1.684;2023-05-10T12:41:03;3.40;;;1.58;;
52574;SDS011;38468;48.114;-1.684;2023-05-10T12:43:06;7.35;;;1.67;;